Terminal Aerodrome Forecast
Issued by NWS

Home | Current Version | Previous Version | Text Only | Print | Product List | Glossary On
Versions: 1 2 3 4 5 6 7 8 9 10 11 12 13 14 15 16
000
FTUS41 KBTV 270537
TAFMPV
TAF
KMPV 270537Z 2706/2806 VRB03KT P6SM VCSH BKN060
     FM270800 00000KT P6SM SKC
      TEMPO 2708/2712 3SM BR SCT010
     FM271200 21005KT P6SM SKC
     FM271800 26006KT 4SM SHRA BR OVC040
     FM272100 25005KT P6SM VCSH BKN040
     FM280100 23004KT P6SM SCT040=

USA.gov is the U.S. government's official web portal to all federal, state and local government web resources and services.